Time;durP1;ratioP1;P1;durP2;ratioP2;P2;SDS_P1;SDS_P2;PMS_P1;PMS_P2;Temp;Humidity;BMP_temperature;BMP_pressure;BME280_temperature;BME280_humidity;BME280_pressure;Samples;Min_cycle;Max_cycle;Signal;HPM_P1;HPM_P2
2022/03/08 00:00:42;;;;;;;10.40;4.83;;;-0.60;90.50;;;;;;6284270;22;20082;-82
2022/03/08 00:03:08;;;;;;;8.70;4.43;;;-0.70;90.50;;;;;;6282927;22;20085;-84
2022/03/08 00:05:33;;;;;;;9.00;4.40;;;-0.70;90.50;;;;;;6310311;22;19996;-83
2022/03/08 00:07:59;;;;;;;11.23;4.77;;;-0.70;90.50;;;;;;6282764;22;19999;-82
2022/03/08 00:10:25;;;;;;;12.03;4.23;;;-0.70;90.40;;;;;;6310186;22;20011;-83
2022/03/08 00:12:51;;;;;;;7.27;4.00;;;-0.80;90.40;;;;;;6280039;22;20003;-83
2022/03/08 00:15:24;;;;;;;9.70;3.90;;;-0.80;90.50;;;;;;6282565;22;20014;-82
2022/03/08 00:17:51;;;;;;;9.40;3.90;;;-0.80;90.60;;;;;;6311495;22;20073;-83
2022/03/08 00:20:17;;;;;;;7.03;3.40;;;-0.80;90.60;;;;;;6310490;22;20094;-83
2022/03/08 00:22:43;;;;;;;8.17;4.67;;;-0.80;90.50;;;;;;6311074;22;20426;-83
2022/03/08 00:25:11;;;;;;;9.83;4.50;;;-0.90;90.40;;;;;;6310460;22;20008;-84
2022/03/08 00:27:37;;;;;;;9.57;4.73;;;-0.90;90.70;;;;;;6310364;22;20014;-83
2022/03/08 00:30:06;;;;;;;9.33;3.97;;;-0.90;90.50;;;;;;6309850;22;20007;-83
2022/03/08 00:32:32;;;;;;;7.97;3.77;;;-0.80;90.40;;;;;;6309912;22;19999;-83
2022/03/08 00:34:58;;;;;;;10.47;4.40;;;-0.90;90.50;;;;;;6309956;22;20291;-83
2022/03/08 00:37:23;;;;;;;10.80;4.17;;;-0.90;90.40;;;;;;6282597;22;20014;-83
2022/03/08 00:39:49;;;;;;;11.40;4.70;;;-0.90;90.50;;;;;;6309472;22;20019;-83
2022/03/08 00:42:15;;;;;;;10.57;4.03;;;-0.90;90.40;;;;;;6309720;22;20313;-83
2022/03/08 00:44:44;;;;;;;8.83;4.13;;;-0.90;90.20;;;;;;6282453;22;20011;-82
2022/03/08 00:47:10;;;;;;;8.13;3.60;;;-0.90;90.40;;;;;;6309653;22;20079;-83
2022/03/08 00:49:37;;;;;;;9.77;4.47;;;-0.90;90.50;;;;;;6281829;22;20341;-83
2022/03/08 00:52:05;;;;;;;9.73;3.97;;;-0.90;90.30;;;;;;6309431;22;20082;-82
2022/03/08 00:54:34;;;;;;;9.43;3.60;;;-1.00;90.30;;;;;;6281036;22;20101;-82
2022/03/08 00:56:59;;;;;;;9.70;4.23;;;-0.90;90.30;;;;;;6308997;22;19999;-82
2022/03/08 00:59:25;;;;;;;9.57;4.47;;;-0.90;90.20;;;;;;6280803;22;20004;-83
2022/03/08 01:01:51;;;;;;;10.40;4.27;;;-0.90;90.30;;;;;;6281904;22;19999;-83
2022/03/08 01:04:17;;;;;;;12.07;4.73;;;-1.00;90.00;;;;;;6280951;22;20324;-83
2022/03/08 01:06:44;;;;;;;10.83;3.77;;;-1.00;90.00;;;;;;6308787;22;20003;-82
2022/03/08 01:09:10;;;;;;;10.93;4.07;;;-1.00;90.30;;;;;;6308387;22;20007;-83
2022/03/08 01:11:36;;;;;;;8.80;4.10;;;-0.90;90.00;;;;;;6280693;22;20037;-83
2022/03/08 01:14:06;;;;;;;8.43;3.90;;;-0.90;90.10;;;;;;6308696;22;20003;-82
2022/03/08 01:16:33;;;;;;;13.33;3.70;;;-1.00;90.10;;;;;;6309840;22;20007;-82
2022/03/08 01:18:59;;;;;;;8.83;4.67;;;-1.00;90.10;;;;;;6307883;22;20349;-82
2022/03/08 01:21:25;;;;;;;9.60;3.63;;;-1.00;90.00;;;;;;6308482;22;20014;-83
2022/03/08 01:23:50;;;;;;;10.00;4.10;;;-1.00;89.70;;;;;;6279923;22;20065;-83
2022/03/08 01:26:16;;;;;;;7.13;3.80;;;-1.00;90.00;;;;;;6281541;22;20006;-83
2022/03/08 01:28:42;;;;;;;9.40;4.27;;;-1.00;90.00;;;;;;6308457;22;20006;-83
2022/03/08 01:31:08;;;;;;;9.67;4.00;;;-1.00;90.00;;;;;;6308799;22;20007;-83
2022/03/08 01:33:34;;;;;;;6.37;3.00;;;-1.00;90.00;;;;;;6308736;22;20422;-83
2022/03/08 01:35:59;;;;;;;10.60;4.17;;;-1.00;90.10;;;;;;6308426;22;20112;-82
2022/03/08 01:38:25;;;;;;;8.83;4.30;;;-0.90;90.10;;;;;;6281101;22;20007;-83
2022/03/08 01:40:51;;;;;;;7.83;3.73;;;-1.00;89.70;;;;;;6308329;22;20030;-82
2022/03/08 01:43:17;;;;;;;9.00;4.17;;;-1.00;89.70;;;;;;6307477;22;20003;-83
2022/03/08 01:45:43;;;;;;;8.10;3.60;;;-1.00;89.90;;;;;;6307400;22;20025;-82
2022/03/08 01:48:09;;;;;;;10.53;3.80;;;-1.00;90.20;;;;;;6308575;22;19995;-83
2022/03/08 01:50:34;;;;;;;11.43;4.20;;;-1.00;89.70;;;;;;6281644;22;20011;-83
2022/03/08 01:53:01;;;;;;;8.30;3.93;;;-1.00;89.40;;;;;;6308717;22;20090;-83
2022/03/08 01:55:26;;;;;;;7.50;3.87;;;-1.00;89.40;;;;;;6280007;22;20064;-83
2022/03/08 01:57:53;;;;;;;8.03;3.67;;;-1.10;90.00;;;;;;6280955;22;20011;-83
2022/03/08 02:00:22;;;;;;;8.50;4.17;;;-1.10;89.70;;;;;;6309150;22;20079;-83
2022/03/08 02:02:48;;;;;;;7.90;3.53;;;-1.10;89.70;;;;;;6303498;22;20018;-83
2022/03/08 02:05:14;;;;;;;8.17;4.10;;;-1.10;89.50;;;;;;6308130;22;20000;-84
2022/03/08 02:07:40;;;;;;;12.53;4.07;;;-1.10;89.60;;;;;;6308786;22;20079;-83
2022/03/08 02:10:06;;;;;;;10.60;3.77;;;-1.10;89.70;;;;;;6308088;22;20137;-83
2022/03/08 02:12:32;;;;;;;9.43;3.90;;;-1.20;89.60;;;;;;6307975;22;19995;-83
2022/03/08 02:14:58;;;;;;;7.57;3.57;;;-1.10;90.00;;;;;;6308633;22;20083;-84
2022/03/08 02:17:24;;;;;;;8.07;3.60;;;-1.20;89.70;;;;;;6311948;22;20379;-83
2022/03/08 02:19:49;;;;;;;7.27;3.07;;;-1.20;89.50;;;;;;6312931;22;20019;-83
2022/03/08 02:22:15;;;;;;;10.03;3.87;;;-1.20;89.80;;;;;;6285012;22;20038;-83
2022/03/08 02:24:41;;;;;;;9.03;3.17;;;-1.20;90.00;;;;;;6310383;22;20050;-83
2022/03/08 02:27:08;;;;;;;6.87;3.33;;;-1.20;90.20;;;;;;6310443;22;20413;-84
2022/03/08 02:29:33;;;;;;;9.57;3.60;;;-1.30;90.20;;;;;;6310277;22;19995;-83
2022/03/08 02:31:59;;;;;;;8.73;3.63;;;-1.30;90.20;;;;;;6308709;22;20321;-82
2022/03/08 02:34:25;;;;;;;7.17;3.53;;;-1.30;90.40;;;;;;6281200;22;20014;-83
2022/03/08 02:37:08;;;;;;;7.50;3.87;;;-1.30;90.40;;;;;;6281591;22;20056;-83
2022/03/08 02:39:38;;;;;;;12.60;4.50;;;-1.30;90.70;;;;;;6281793;22;20082;-83
2022/03/08 02:42:05;;;;;;;10.30;3.73;;;-1.30;90.90;;;;;;6281721;22;20003;-83
2022/03/08 02:44:31;;;;;;;10.80;4.40;;;-1.30;90.80;;;;;;6308488;22;20325;-82
2022/03/08 02:47:02;;;;;;;7.43;3.43;;;-1.30;90.80;;;;;;6308756;22;20023;-83
2022/03/08 02:49:27;;;;;;;8.67;3.57;;;-1.30;90.90;;;;;;6308185;22;20001;-83
2022/03/08 02:51:55;;;;;;;9.00;3.40;;;-1.40;90.80;;;;;;6281128;22;20038;-83
2022/03/08 02:54:21;;;;;;;8.30;4.03;;;-1.40;91.10;;;;;;6280578;22;20137;-83
2022/03/08 02:56:47;;;;;;;8.03;3.73;;;-1.40;91.10;;;;;;6309749;22;19999;-84
2022/03/08 02:59:19;;;;;;;11.47;3.67;;;-1.40;91.10;;;;;;6310034;22;20074;-84
2022/03/08 03:01:44;;;;;;;11.23;4.15;;;-1.40;91.20;;;;;;6277353;22;19999;-84
2022/03/08 03:06:38;;;;;;;8.20;3.47;;;-1.40;91.00;;;;;;6367378;22;20352;-87
2022/03/08 03:09:04;;;;;;;7.90;3.30;;;-1.40;90.70;;;;;;6340151;22;20002;-87
2022/03/08 03:11:30;;;;;;;8.70;3.80;;;-1.40;90.70;;;;;;6368685;22;20029;-87
2022/03/08 03:13:55;;;;;;;5.70;2.67;;;-1.40;90.60;;;;;;6347757;22;20006;-87
2022/03/08 03:16:21;;;;;;;6.57;3.20;;;-1.40;90.90;;;;;;6308752;22;20460;-87
2022/03/08 03:18:47;;;;;;;8.63;3.57;;;-1.40;90.90;;;;;;6308508;22;20026;-87
2022/03/08 03:21:12;;;;;;;11.60;3.43;;;-1.40;90.90;;;;;;6309037;22;20011;-87
2022/03/08 03:23:38;;;;;;;5.80;2.77;;;-1.50;90.70;;;;;;6335951;22;20433;-87
2022/03/08 03:26:04;;;;;;;6.70;2.97;;;-1.50;90.80;;;;;;6308724;22;20053;-88
2022/03/08 03:28:30;;;;;;;7.63;3.23;;;-1.50;90.70;;;;;;6309677;22;20433;-87
2022/03/08 03:30:56;;;;;;;7.53;2.60;;;-1.60;90.80;;;;;;6310692;22;20425;-87
2022/03/08 03:33:21;;;;;;;9.63;3.33;;;-1.50;90.50;;;;;;6338444;22;20006;-87
2022/03/08 03:35:47;;;;;;;9.73;3.80;;;-1.50;90.60;;;;;;6311373;22;20002;-87
2022/03/08 03:38:12;;;;;;;7.97;2.47;;;-1.50;90.70;;;;;;6310916;22;20325;-88
2022/03/08 03:40:38;;;;;;;5.67;2.93;;;-1.50;90.70;;;;;;6311410;22;20003;-87
2022/03/08 03:43:04;;;;;;;7.60;3.33;;;-1.50;90.80;;;;;;6310896;22;20026;-87
2022/03/08 03:45:31;;;;;;;9.23;2.90;;;-1.60;90.50;;;;;;6311167;22;20003;-87
2022/03/08 03:47:56;;;;;;;5.47;3.03;;;-1.60;90.70;;;;;;6337987;22;20006;-87
2022/03/08 03:50:22;;;;;;;5.33;2.30;;;-1.50;90.40;;;;;;6310698;22;20298;-87
2022/03/08 03:52:48;;;;;;;4.43;2.30;;;-1.50;90.40;;;;;;6311214;22;20342;-88
2022/03/08 03:55:14;;;;;;;8.20;2.63;;;-1.50;90.40;;;;;;6311335;22;20011;-87
2022/03/08 03:57:41;;;;;;;6.27;3.13;;;-1.50;90.30;;;;;;6339349;22;20397;-87
2022/03/08 04:00:09;;;;;;;5.93;2.67;;;-1.50;90.40;;;;;;6312475;22;20575;-87
2022/03/08 04:02:35;;;;;;;7.17;2.77;;;-1.50;90.70;;;;;;6311486;22;19998;-87
2022/03/08 04:05:00;;;;;;;7.20;2.97;;;-1.50;90.60;;;;;;6313363;22;20222;-87
2022/03/08 04:07:29;;;;;;;7.83;3.23;;;-1.50;90.40;;;;;;6311211;22;20007;-87
2022/03/08 04:09:55;;;;;;;8.10;2.97;;;-1.50;90.70;;;;;;6311503;22;20014;-87
2022/03/08 04:12:20;;;;;;;5.13;2.50;;;-1.50;90.50;;;;;;6339230;22;20466;-88
2022/03/08 04:14:46;;;;;;;6.97;2.60;;;-1.50;90.40;;;;;;6311973;22;20006;-87
2022/03/08 04:17:12;;;;;;;6.63;2.77;;;-1.50;90.40;;;;;;6311161;22;20345;-87
2022/03/08 04:19:37;;;;;;;17.73;3.20;;;-1.50;90.40;;;;;;6311737;22;20425;-87
2022/03/08 04:22:03;;;;;;;8.10;2.83;;;-1.50;90.20;;;;;;6312604;22;20022;-87
2022/03/08 04:24:29;;;;;;;10.57;2.43;;;-1.50;90.30;;;;;;6311911;22;20515;-87
2022/03/08 04:26:55;;;;;;;8.30;3.07;;;-1.40;90.50;;;;;;6311925;22;20059;-87
2022/03/08 04:29:20;;;;;;;7.07;2.93;;;-1.60;90.60;;;;;;6311985;22;20006;-88
2022/03/08 04:31:47;;;;;;;6.87;2.70;;;-1.60;90.60;;;;;;6311651;22;20010;-86
2022/03/08 04:34:13;;;;;;;7.90;2.90;;;-1.60;90.20;;;;;;6311366;22;20452;-87
2022/03/08 04:36:38;;;;;;;7.17;2.67;;;-1.60;90.20;;;;;;6313193;22;19999;-87
2022/03/08 04:39:06;;;;;;;5.77;2.70;;;-1.50;90.30;;;;;;6309207;22;20003;-87
2022/03/08 04:41:33;;;;;;;7.30;2.83;;;-1.50;90.30;;;;;;6310608;22;20006;-87
2022/03/08 04:43:58;;;;;;;7.47;2.47;;;-1.50;90.20;;;;;;6310932;22;19998;-87
2022/03/08 04:46:24;;;;;;;5.17;2.30;;;-1.50;90.40;;;;;;6311863;22;20014;-87
2022/03/08 04:48:50;;;;;;;7.37;2.57;;;-1.50;90.40;;;;;;6338288;22;20005;-87
2022/03/08 04:51:16;;;;;;;6.30;2.30;;;-1.50;90.20;;;;;;6339028;22;20024;-87
2022/03/08 04:53:42;;;;;;;7.90;2.50;;;-1.50;90.00;;;;;;6310788;22;20006;-87
2022/03/08 04:56:07;;;;;;;6.30;2.50;;;-1.50;90.00;;;;;;6311913;22;20405;-87
2022/03/08 04:58:33;;;;;;;8.37;2.30;;;-1.50;90.20;;;;;;6339466;22;20055;-87
2022/03/08 05:00:59;;;;;;;7.37;2.77;;;-1.50;90.20;;;;;;6323245;22;20007;-88
2022/03/08 05:03:25;;;;;;;6.83;2.50;;;-1.50;90.40;;;;;;6316983;22;20341;-87
2022/03/08 05:05:52;;;;;;;6.90;2.10;;;-1.60;90.30;;;;;;6310963;22;20011;-87
2022/03/08 05:08:19;;;;;;;5.73;2.30;;;-1.50;90.20;;;;;;6311152;22;20006;-87
2022/03/08 05:10:44;;;;;;;5.80;2.07;;;-1.50;90.40;;;;;;6310723;22;20052;-87
2022/03/08 05:13:10;;;;;;;5.03;2.77;;;-1.50;90.60;;;;;;6338771;22;19999;-87
2022/03/08 05:15:36;;;;;;;5.97;2.40;;;-1.50;90.70;;;;;;6337956;22;20048;-88
2022/03/08 05:18:06;;;;;;;7.37;2.50;;;-1.50;90.80;;;;;;6313960;22;20083;-86
2022/03/08 05:20:37;;;;;;;7.40;2.67;;;-1.60;91.00;;;;;;6313272;22;20053;-87
2022/03/08 05:23:03;;;;;;;5.87;2.20;;;-1.50;90.90;;;;;;6311329;22;20082;-88
2022/03/08 05:25:28;;;;;;;6.67;2.53;;;-1.50;91.00;;;;;;6310526;22;20002;-87
2022/03/08 05:28:06;;;;;;;7.53;2.53;;;-1.50;90.80;;;;;;6312126;22;20417;-87
2022/03/08 05:30:32;;;;;;;5.30;1.93;;;-1.40;90.90;;;;;;6309202;22;20078;-88
2022/03/08 05:33:04;;;;;;;4.40;1.90;;;-1.50;91.00;;;;;;6311963;22;20208;-87
2022/03/08 05:35:34;;;;;;;6.68;2.50;;;-1.40;90.90;;;;;;6311630;22;20437;-87
2022/03/08 05:38:19;;;;;;;5.73;2.03;;;-1.50;91.00;;;;;;6311609;22;20007;-87
2022/03/08 05:40:53;;;;;;;6.10;1.83;;;-1.50;91.10;;;;;;6310723;22;20451;-88
2022/03/08 05:43:24;;;;;;;4.70;2.37;;;-1.50;91.40;;;;;;6309864;22;20306;-88
2022/03/08 05:45:53;;;;;;;4.33;1.97;;;-1.50;91.30;;;;;;6311102;22;20108;-87
2022/03/08 05:48:22;;;;;;;7.30;2.60;;;-1.50;91.30;;;;;;6313199;22;19999;-87
2022/03/08 05:50:48;;;;;;;6.17;2.37;;;-1.40;91.20;;;;;;6311661;22;20525;-89
2022/03/08 05:53:15;;;;;;;6.00;2.30;;;-1.40;91.20;;;;;;6311332;22;20013;-88
2022/03/08 05:55:42;;;;;;;8.43;2.60;;;-1.40;91.10;;;;;;6312480;22;20007;-87
2022/03/08 05:58:10;;;;;;;4.03;2.07;;;-1.30;91.30;;;;;;6311421;22;20429;-87
2022/03/08 06:00:42;;;;;;;5.27;1.70;;;-1.30;91.00;;;;;;6311668;22;20013;-87
2022/03/08 06:03:10;;;;;;;4.93;1.90;;;-1.30;91.00;;;;;;6312845;22;20013;-87
2022/03/08 06:05:38;;;;;;;5.07;2.23;;;-1.30;90.90;;;;;;6313225;22;20042;-87
2022/03/08 06:08:07;;;;;;;6.73;1.93;;;-1.30;90.80;;;;;;6312723;22;20003;-87
2022/03/08 06:10:41;;;;;;;5.60;2.30;;;-1.30;90.70;;;;;;6312539;22;20452;-88
2022/03/08 06:13:27;;;;;;;4.57;1.93;;;-1.30;90.70;;;;;;6312658;22;20498;-88
2022/03/08 06:16:09;;;;;;;4.60;1.83;;;-1.20;90.90;;;;;;6314478;22;20011;-87
2022/03/08 06:18:58;;;;;;;3.72;1.80;;;-1.20;91.00;;;;;;6315282;22;20010;-87
2022/03/08 06:21:45;;;;;;;4.53;1.83;;;-1.10;90.80;;;;;;6313997;22;20094;-87
2022/03/08 06:24:23;;;;;;;5.33;2.30;;;-1.10;90.70;;;;;;6314762;22;20086;-88
2022/03/08 06:30:59;;;;;;;4.23;1.77;;;-1.10;90.80;;;;;;6339800;22;20009;-88
2022/03/08 06:37:01;;;;;;;5.10;2.13;;;-0.90;90.50;;;;;;6345602;22;20447;-89
2022/03/08 06:39:30;;;;;;;7.40;2.47;;;-0.80;90.80;;;;;;6315004;22;19998;-87
2022/03/08 06:42:04;;;;;;;6.40;2.57;;;-0.70;90.70;;;;;;6312249;22;20052;-88
2022/03/08 06:44:31;;;;;;;5.63;2.17;;;-0.70;90.60;;;;;;6311928;22;20014;-87
2022/03/08 06:46:58;;;;;;;6.00;2.40;;;-0.60;90.80;;;;;;6310787;22;20145;-87
2022/03/08 06:49:31;;;;;;;6.07;2.30;;;-0.60;90.70;;;;;;6315993;22;20007;-88
2022/03/08 06:51:59;;;;;;;6.90;2.80;;;-0.50;90.70;;;;;;6313782;22;20052;-87
2022/03/08 06:54:25;;;;;;;6.20;3.00;;;-0.40;90.60;;;;;;6337225;22;20011;-87
2022/03/08 06:56:54;;;;;;;6.13;2.70;;;-0.40;90.50;;;;;;6337933;22;20009;-87
2022/03/08 06:59:22;;;;;;;5.03;2.30;;;-0.30;90.50;;;;;;6310527;22;20002;-87
2022/03/08 07:02:00;;;;;;;5.43;2.50;;;-0.20;90.50;;;;;;6305455;22;20002;-88
2022/03/08 07:04:35;;;;;;;;;;;;;;;;;;;;;
2022/03/08 07:07:05;;;;;;;4.97;2.13;;;0.00;90.40;;;;;;6337278;22;20082;-87
2022/03/08 07:09:45;;;;;;;6.10;2.57;;;0.10;90.50;;;;;;6309887;22;20425;-88
2022/03/08 07:12:20;;;;;;;6.37;2.93;;;0.20;90.80;;;;;;6338279;22;20306;-88
2022/03/08 07:14:47;;;;;;;5.13;2.20;;;0.30;90.50;;;;;;6336432;22;20075;-88
2022/03/08 07:17:13;;;;;;;7.50;2.60;;;0.40;90.30;;;;;;6309518;22;20294;-89
2022/03/08 07:19:40;;;;;;;7.83;2.50;;;0.50;90.20;;;;;;6309888;22;20002;-88
2022/03/08 07:22:06;;;;;;;7.40;2.50;;;0.50;90.00;;;;;;6309917;22;20068;-89
2022/03/08 07:24:31;;;;;;;5.03;2.00;;;0.60;89.60;;;;;;6308817;22;19996;-88
2022/03/08 07:26:57;;;;;;;7.23;2.10;;;0.70;89.70;;;;;;6337039;22;20055;-88
2022/03/08 07:29:23;;;;;;;4.97;2.33;;;0.80;89.80;;;;;;6336913;22;20421;-88
2022/03/08 07:31:48;;;;;;;7.53;2.27;;;0.80;89.50;;;;;;6308910;22;20444;-88
2022/03/08 07:34:14;;;;;;;6.57;2.60;;;0.90;89.80;;;;;;6307917;22;20014;-88
2022/03/08 07:36:40;;;;;;;5.80;2.40;;;1.00;90.00;;;;;;6308934;22;20007;-87
2022/03/08 07:39:06;;;;;;;6.87;2.87;;;1.10;89.90;;;;;;6309773;22;20018;-89
2022/03/08 07:41:32;;;;;;;5.17;2.90;;;1.10;90.20;;;;;;6336902;22;20007;-89
2022/03/08 07:43:58;;;;;;;8.73;2.80;;;1.20;90.10;;;;;;6309080;22;20038;-88
2022/03/08 07:46:24;;;;;;;5.37;2.60;;;1.30;89.60;;;;;;6308783;22;20344;-88
2022/03/08 07:48:50;;;;;;;6.97;2.77;;;1.40;90.00;;;;;;6309487;22;20007;-89
2022/03/08 07:51:15;;;;;;;4.30;2.50;;;1.40;89.90;;;;;;6309043;22;20026;-88
2022/03/08 07:53:41;;;;;;;7.80;2.90;;;1.50;89.40;;;;;;6336021;22;20007;-88
2022/03/08 07:56:07;;;;;;;6.07;2.90;;;1.60;90.00;;;;;;6336606;22;20003;-88
2022/03/08 07:59:20;;;;;;;7.07;3.80;;;1.70;89.70;;;;;;6309122;22;20326;-91
2022/03/08 08:01:52;;;;;;;7.10;2.80;;;1.80;89.40;;;;;;6284230;22;20017;-90
2022/03/08 08:05:00;;;;;;;;;;;;;;;;;;;;;
2022/03/08 08:08:14;;;;;;;;;;;;;;;;;;;;;
2022/03/08 08:10:56;;;;;;;;;;;2.00;88.80;;;;;;6338542;22;20472;-91
2022/03/08 08:13:31;;;;;;;5.05;2.20;;;2.10;88.80;;;;;;6310552;22;19902;-90
2022/03/08 08:16:17;;;;;;;5.47;2.70;;;2.30;88.20;;;;;;6310394;22;20008;-90
2022/03/08 08:18:46;;;;;;;6.17;3.33;;;2.30;88.60;;;;;;6310961;22;20082;-90
2022/03/08 08:21:20;;;;;;;4.93;2.80;;;2.40;87.80;;;;;;6311876;22;20405;-90
2022/03/08 08:24:02;;;;;;;7.57;2.60;;;2.40;87.70;;;;;;6307689;22;20252;-90
2022/03/08 08:27:00;;;;;;;5.32;1.77;;;2.60;88.10;;;;;;6311132;22;20003;-89
2022/03/08 08:29:26;;;;;;;11.73;2.80;;;2.70;87.80;;;;;;6312185;22;20003;-90
2022/03/08 08:31:55;;;;;;;4.93;2.57;;;2.90;87.70;;;;;;6312159;22;20045;-90
2022/03/08 08:34:26;;;;;;;6.07;3.17;;;2.90;87.00;;;;;;6286606;22;20019;-91
2022/03/08 08:36:52;;;;;;;4.63;1.80;;;3.00;87.30;;;;;;6280404;22;20007;-91
2022/03/08 08:39:37;;;;;;;5.77;2.80;;;3.20;86.60;;;;;;6280956;22;20024;-90
2022/03/08 08:42:09;;;;;;;5.70;2.67;;;3.30;86.60;;;;;;6308257;22;20064;-90
2022/03/08 08:44:45;;;;;;;6.20;3.03;;;3.40;86.10;;;;;;6280253;22;20352;-90
2022/03/08 08:47:12;;;;;;;6.03;2.43;;;3.40;85.50;;;;;;6281066;22;20272;-90
2022/03/08 08:50:01;;;;;;;6.67;2.57;;;3.50;85.60;;;;;;6281424;22;20053;-90
2022/03/08 08:52:35;;;;;;;5.37;2.33;;;3.60;85.50;;;;;;6279973;22;20023;-90
2022/03/08 08:55:30;;;;;;;7.23;2.30;;;3.60;84.80;;;;;;6280386;22;20000;-89
2022/03/08 08:58:08;;;;;;;6.67;2.67;;;3.60;84.30;;;;;;6281162;22;20000;-90
2022/03/08 09:01:13;;;;;;;3.20;1.90;;;3.60;84.90;;;;;;6280415;22;20045;-90
2022/03/08 09:03:47;;;;;;;6.67;1.97;;;3.80;84.00;;;;;;6306849;22;20343;-90
2022/03/08 09:06:29;;;;;;;6.20;2.13;;;3.80;83.80;;;;;;6279742;22;20070;-90
2022/03/08 09:08:57;;;;;;;4.43;2.07;;;3.80;83.30;;;;;;6294880;22;20015;-82
2022/03/08 09:11:24;;;;;;;4.17;2.30;;;3.80;83.10;;;;;;6318037;22;20003;-82
2022/03/08 09:13:49;;;;;;;5.80;2.33;;;3.90;83.20;;;;;;6316908;22;20007;-81
2022/03/08 09:16:15;;;;;;;6.33;1.47;;;3.90;83.70;;;;;;6318287;22;20090;-83
2022/03/08 09:18:44;;;;;;;5.33;2.10;;;4.00;81.70;;;;;;6302331;22;20082;-82
2022/03/08 09:21:12;;;;;;;4.30;1.90;;;4.10;81.40;;;;;;6287998;22;20015;-82
2022/03/08 09:23:38;;;;;;;5.10;2.67;;;4.20;81.60;;;;;;6315300;22;20002;-82
2022/03/08 09:26:05;;;;;;;3.67;2.00;;;4.20;81.50;;;;;;6288619;22;20091;-81
2022/03/08 09:28:31;;;;;;;4.33;2.00;;;4.20;80.90;;;;;;6320172;22;20041;-82
2022/03/08 09:30:59;;;;;;;7.40;1.67;;;4.30;81.60;;;;;;6323441;22;20024;-81
2022/03/08 09:33:24;;;;;;;4.83;2.10;;;4.50;80.60;;;;;;6317188;22;20003;-82
2022/03/08 09:35:50;;;;;;;6.73;2.30;;;4.50;80.90;;;;;;6289181;22;20337;-82
2022/03/08 09:38:17;;;;;;;4.50;2.03;;;4.60;80.80;;;;;;6315884;22;20059;-81
2022/03/08 09:40:42;;;;;;;4.70;2.20;;;4.80;80.50;;;;;;6315332;22;20006;-82
2022/03/08 09:43:09;;;;;;;4.90;2.00;;;4.90;80.10;;;;;;6287479;22;19995;-82
2022/03/08 09:45:34;;;;;;;4.30;2.13;;;4.80;80.30;;;;;;6288731;22;20432;-81
2022/03/08 09:48:01;;;;;;;4.00;1.60;;;4.90;80.20;;;;;;6287990;22;19999;-81
2022/03/08 09:50:29;;;;;;;7.03;2.03;;;4.70;78.60;;;;;;6286858;22;20004;-82
2022/03/08 09:52:57;;;;;;;4.43;2.07;;;4.70;78.90;;;;;;6314866;22;20017;-82
2022/03/08 09:55:25;;;;;;;4.83;2.23;;;4.80;78.00;;;;;;6287015;22;20007;-82
2022/03/08 09:57:52;;;;;;;4.80;1.83;;;4.90;78.20;;;;;;6315405;22;20011;-82
2022/03/08 10:00:18;;;;;;;5.23;2.03;;;5.00;77.40;;;;;;6314780;22;20014;-83
2022/03/08 10:02:49;;;;;;;6.07;2.10;;;5.10;77.30;;;;;;6314459;22;20003;-82
2022/03/08 10:05:16;;;;;;;4.87;2.20;;;5.10;77.40;;;;;;6286471;22;20010;-82
2022/03/08 10:08:02;;;;;;;4.70;1.90;;;5.10;76.70;;;;;;6285839;22;19999;-81
2022/03/08 10:10:31;;;;;;;5.67;2.40;;;5.30;76.50;;;;;;6286415;22;20011;-82
2022/03/08 10:12:58;;;;;;;4.67;1.57;;;5.20;75.70;;;;;;6286821;22;20399;-82
2022/03/08 10:15:23;;;;;;;4.83;1.83;;;5.40;76.30;;;;;;6313705;22;20003;-82
2022/03/08 10:17:49;;;;;;;4.57;2.20;;;5.50;75.30;;;;;;6286644;22;20003;-82
2022/03/08 10:20:30;;;;;;;4.03;1.97;;;5.60;75.00;;;;;;6314116;22;20032;-81
2022/03/08 10:22:57;;;;;;;6.87;2.13;;;5.70;73.80;;;;;;6286974;22;20025;-82
2022/03/08 10:25:25;;;;;;;5.77;2.40;;;5.80;73.80;;;;;;6286571;22;20003;-82
2022/03/08 10:27:54;;;;;;;5.63;1.80;;;5.80;74.00;;;;;;6314659;22;19995;-81
2022/03/08 10:30:26;;;;;;;5.87;1.80;;;6.00;73.80;;;;;;6313630;22;20401;-82
2022/03/08 10:32:56;;;;;;;4.95;2.17;;;6.10;72.60;;;;;;6287286;22;20098;-81
2022/03/08 10:35:29;;;;;;;4.10;1.67;;;6.20;71.80;;;;;;6313849;22;20081;-82
2022/03/08 10:38:07;;;;;;;3.93;1.60;;;6.20;70.70;;;;;;6286705;22;20011;-83
2022/03/08 10:40:33;;;;;;;5.97;1.77;;;6.20;70.00;;;;;;6314656;22;19999;-83
2022/03/08 10:43:08;;;;;;;3.27;1.67;;;6.10;71.20;;;;;;6314772;22;20054;-82
2022/03/08 10:45:36;;;;;;;5.67;2.20;;;6.20;70.00;;;;;;6286675;22;20224;-81
2022/03/08 10:48:06;;;;;;;4.07;1.77;;;6.30;70.50;;;;;;6288100;22;20079;-81
2022/03/08 10:50:34;;;;;;;5.03;2.10;;;6.10;71.10;;;;;;6288980;22;20003;-81
2022/03/08 10:53:02;;;;;;;3.80;1.70;;;6.30;69.80;;;;;;6288135;22;20322;-80
2022/03/08 10:55:28;;;;;;;4.17;1.60;;;6.40;68.80;;;;;;6289820;22;20085;-81
2022/03/08 10:58:00;;;;;;;5.97;2.00;;;6.50;68.50;;;;;;6317733;22;20058;-81
2022/03/08 11:00:30;;;;;;;5.15;2.13;;;6.60;69.10;;;;;;6292718;22;20007;-80
2022/03/08 11:03:00;;;;;;;4.70;1.50;;;6.50;67.90;;;;;;6292925;22;20000;-81
2022/03/08 11:05:39;;;;;;;4.47;1.53;;;6.60;67.70;;;;;;6294405;22;20010;-81
2022/03/08 11:08:06;;;;;;;4.53;1.87;;;6.80;68.10;;;;;;6317365;22;19996;-81
2022/03/08 11:10:33;;;;;;;4.60;2.07;;;7.00;66.70;;;;;;6287755;22;20011;-81
2022/03/08 11:12:59;;;;;;;3.77;2.20;;;7.10;66.10;;;;;;6319237;22;20003;-81
2022/03/08 11:15:27;;;;;;;3.83;1.60;;;7.00;65.00;;;;;;6318009;22;20089;-81
2022/03/08 11:17:54;;;;;;;4.97;1.70;;;6.80;66.90;;;;;;6286337;22;20014;-80
2022/03/08 11:20:21;;;;;;;3.30;1.30;;;7.00;66.10;;;;;;6286735;22;20000;-82
2022/03/08 11:22:51;;;;;;;3.37;1.33;;;7.00;64.40;;;;;;6283304;22;20372;-81
2022/03/08 11:25:18;;;;;;;3.90;1.60;;;7.10;63.30;;;;;;6309861;22;20448;-81
2022/03/08 11:27:46;;;;;;;4.47;1.97;;;7.00;64.10;;;;;;6310301;22;20379;-80
2022/03/08 11:30:15;;;;;;;5.13;1.87;;;6.90;65.50;;;;;;6310487;22;20063;-81
2022/03/08 11:33:12;;;;;;;3.47;1.27;;;6.90;63.80;;;;;;6281824;22;20073;-81
2022/03/08 11:35:57;;;;;;;4.33;1.60;;;6.80;63.80;;;;;;6281692;22;20363;-81
2022/03/08 11:38:22;;;;;;;4.73;1.80;;;6.80;65.50;;;;;;6309222;22;20004;-81
2022/03/08 11:40:59;;;;;;;3.43;1.37;;;7.10;66.10;;;;;;6281308;22;20105;-82
2022/03/08 11:43:45;;;;;;;3.77;1.73;;;7.20;62.70;;;;;;6309022;22;19999;-80
2022/03/08 11:46:18;;;;;;;5.87;1.53;;;7.00;62.60;;;;;;6280976;22;20007;-81
2022/03/08 11:49:03;;;;;;;4.87;1.87;;;7.30;64.40;;;;;;6281517;22;20393;-81
2022/03/08 11:51:31;;;;;;;4.53;1.57;;;7.40;64.70;;;;;;6281011;22;20004;-81
2022/03/08 11:54:26;;;;;;;5.03;1.70;;;7.40;63.20;;;;;;6309443;22;20459;-80
2022/03/08 11:56:54;;;;;;;4.70;2.00;;;7.40;63.90;;;;;;6274400;22;20078;-80
2022/03/08 11:59:20;;;;;;;4.90;1.90;;;7.50;62.80;;;;;;6286123;22;19995;-81
2022/03/08 12:01:47;;;;;;;3.53;1.70;;;7.70;63.50;;;;;;6305425;22;20427;-81
2022/03/08 12:04:19;;;;;;;4.47;1.92;;;7.80;62.80;;;;;;6309366;22;19999;-81
2022/03/08 12:06:50;;;;;;;6.25;1.92;;;7.90;62.80;;;;;;6310299;22;20000;-82
2022/03/08 12:09:18;;;;;;;9.80;1.47;;;7.80;61.90;;;;;;6281107;22;20007;-81
2022/03/08 12:11:51;;;;;;;6.38;2.08;;;7.70;62.30;;;;;;6280954;22;20042;-81
2022/03/08 12:14:20;;;;;;;6.22;2.13;;;7.80;62.70;;;;;;6307733;22;20003;-81
2022/03/08 12:16:48;;;;;;;4.85;1.92;;;7.90;62.30;;;;;;6279833;22;20003;-82
2022/03/08 12:19:31;;;;;;;5.38;1.83;;;8.00;62.70;;;;;;6280195;22;20003;-81
2022/03/08 12:21:57;;;;;;;4.53;1.92;;;8.20;62.50;;;;;;6279216;22;20003;-81
2022/03/08 12:24:24;;;;;;;3.67;1.92;;;8.20;61.90;;;;;;6308342;22;19995;-81
2022/03/08 12:26:57;;;;;;;5.05;2.15;;;8.20;60.30;;;;;;6311354;22;20421;-82
2022/03/08 12:29:36;;;;;;;7.43;1.77;;;8.10;60.80;;;;;;6308914;22;20056;-81
2022/03/08 12:32:03;;;;;;;7.80;1.77;;;8.00;59.80;;;;;;6308738;22;20039;-82
2022/03/08 12:34:46;;;;;;;4.72;2.08;;;7.70;60.60;;;;;;6309601;22;20004;-82
2022/03/08 12:37:41;;;;;;;5.13;2.10;;;7.90;62.40;;;;;;6280581;22;20086;-81
2022/03/08 12:40:20;;;;;;;5.88;1.70;;;8.10;63.30;;;;;;6309272;22;20011;-81
2022/03/08 12:42:58;;;;;;;5.43;2.22;;;8.10;61.80;;;;;;6280855;22;20003;-82
2022/03/08 12:45:40;;;;;;;6.95;2.10;;;8.30;63.20;;;;;;6279454;22;20003;-83
2022/03/08 12:48:08;;;;;;;4.97;2.17;;;8.60;61.70;;;;;;6307346;22;20074;-82
2022/03/08 12:50:44;;;;;;;6.80;2.17;;;8.70;61.00;;;;;;6310577;22;20013;-82
2022/03/08 12:53:25;;;;;;;4.47;2.22;;;8.70;61.40;;;;;;6281932;22;20460;-82
2022/03/08 12:55:56;;;;;;;5.57;2.20;;;8.80;61.00;;;;;;6309813;22;20007;-82
2022/03/08 12:58:27;;;;;;;5.13;2.30;;;8.70;60.80;;;;;;6281064;22;20033;-82
2022/03/08 13:00:57;;;;;;;5.68;2.28;;;8.90;61.00;;;;;;6305531;22;20078;-82
2022/03/08 13:03:25;;;;;;;2.67;1.50;;;8.90;60.00;;;;;;6275979;22;20481;-82
2022/03/08 13:05:52;;;;;;;5.75;2.15;;;9.00;59.90;;;;;;6305410;22;20003;-81
2022/03/08 13:08:20;;;;;;;3.80;1.48;;;8.90;59.40;;;;;;6306814;22;19999;-82
2022/03/08 13:10:50;;;;;;;4.47;1.80;;;9.00;60.50;;;;;;6279489;22;20018;-82
2022/03/08 13:13:16;;;;;;;4.47;1.75;;;9.10;59.10;;;;;;6306826;22;20070;-83
2022/03/08 13:15:42;;;;;;;4.85;2.22;;;9.20;59.50;;;;;;6307914;22;20037;-82
2022/03/08 13:18:08;;;;;;;4.65;1.88;;;9.10;59.10;;;;;;6306415;22;20000;-82